15:33
Airports
History
Links
Donate
Help keep this website running!
PayPal
Bitcoin
This page is community maintained. The information is intended for PC simulator navigation or reference.
Always use approved charts for navigation.
AS3
Barkerville
Barkerville (AS3)
British Columbia, Canada
(U)
Lat/Lng:53° 5' 9.88" N / 121° 30' 33.09" W
53.086079 / -121.509193
Elevation:4060'ft / 1237mMSL
ID / ICAO:AS3
Runways:1
Longest:11-29
Asphalt 821m / 2,693ft
Nearby Weather15:00 GMT 2018-02-19
Nearby weather at CYQZ, QUESNEL located 41.8 nautical miles from AS3
Altimeter: 30.27
Visibility: 8.0 statute miles
Wind: 0 knots (from 000°)
Temp: -24°c / -11°f
Humidity: 76.0%

METAR: CYQZ 191500Z AUTO 00000KT 8SM OVC003 M24/M27 A3027 RMK SLP313

(Powered by phpweather)
Nearby VORs <50NM
Nearby NDBs
Runway 11 / 29
Dimensions:820.8 x 12.2m 2693' x 40'ft
Surface:Asphalt
Runway 11 [A]Runway 29 [B]
Heading:133°TH 313°TH
Lat:
Lng:
53° 5' 18.98"N
121° 30' 49.33"W
53° 5' 0.79"N
121° 30' 16.86"W
User Notes and Comments
53° 5' 9.88" N / 121° 30' 33.09" W
Distance To
Airport ID:
Nearby Airports
(U) QUESNEL 41.8 NM
CYQZ ( WX ) W 264°
(U) McBride 57.6 NM
AV4 ENE 74°
(U) WILLIAMS LAKE 66.5 NM
CYWL ( WX ) SSW 200°
(C) PRINCE GEORGE 73.5 NM
CYXS ( WX ) NW 319°
(U) VALEMOUNT 91.9 NM
CAH4 E 100°
(U) ONE ZERO EIGHT MILE AIRPORT 93.5 NM
CZML S 175°
(U) One Hundred Mile House 100.4 NM
AV3 S 175°
VFR Chart
Flight Planning at SkyVector.com